createdAt,value
2023-12-26T00:00:13.132Z,99606.13
2023-12-26T00:00:45.208Z,99597.03
2023-12-26T00:01:17.570Z,99591.34
2023-12-26T00:01:49.543Z,99596.53
2023-12-26T00:02:22.230Z,99587.66
2023-12-26T00:02:54.588Z,99586.13
2023-12-26T00:03:29.933Z,99594.03
2023-12-26T00:04:02.016Z,99595.22
2023-12-26T00:04:34.191Z,99593.84
2023-12-26T00:05:06.661Z,99604.59
2023-12-26T00:05:41.094Z,99587.47
2023-12-26T00:06:13.238Z,99589.50
2023-12-26T00:06:45.270Z,99603.78
2023-12-26T00:07:17.255Z,99600.41
2023-12-26T00:07:49.226Z,99600.25
2023-12-26T00:08:21.241Z,99603.78
2023-12-26T00:08:55.466Z,99603.44
2023-12-26T00:09:27.669Z,99604.44
2023-12-26T00:09:59.832Z,99606.97
2023-12-26T00:10:32.235Z,99600.91
2023-12-26T00:11:04.434Z,99604.97
2023-12-26T00:11:42.673Z,99604.97
2023-12-26T00:12:14.704Z,99599.72
2023-12-26T00:12:46.756Z,99598.22
2023-12-26T00:13:18.800Z,99596.53
2023-12-26T00:13:50.775Z,99592.00
2023-12-26T00:14:22.843Z,99603.59
2023-12-26T00:14:54.956Z,99591.16
2023-12-26T00:15:31.301Z,99597.91
2023-12-26T00:16:03.516Z,99594.88
2023-12-26T00:16:35.501Z,99598.75
2023-12-26T00:17:07.544Z,99593.84
2023-12-26T00:17:42.353Z,99592.19
2023-12-26T00:18:14.631Z,99602.41
2023-12-26T00:18:47.258Z,99599.72
2023-12-26T00:19:19.383Z,99601.44
2023-12-26T00:19:54.635Z,99595.53
2023-12-26T00:20:26.718Z,99604.13
2023-12-26T00:20:58.781Z,99600.25
2023-12-26T00:21:30.829Z,99596.53
2023-12-26T00:22:03.086Z,99596.19
2023-12-26T00:22:36.321Z,99604.13
2023-12-26T00:23:08.383Z,99607.47
2023-12-26T00:23:40.425Z,99597.03
2023-12-26T00:24:12.667Z,99603.44
2023-12-26T00:24:44.672Z,99600.91
2023-12-26T00:25:16.654Z,99602.25
2023-12-26T00:25:48.651Z,99609.66
2023-12-26T00:26:20.580Z,99598.72
2023-12-26T00:26:52.567Z,99607.13
2023-12-26T00:27:24.681Z,99602.06
2023-12-26T00:27:56.772Z,99596.88
2023-12-26T00:28:32.071Z,99612.69
2023-12-26T00:29:04.070Z,99613.50
2023-12-26T00:29:36.826Z,99602.91
2023-12-26T00:30:09.692Z,99601.41
2023-12-26T00:30:42.080Z,99602.59
2023-12-26T00:31:14.252Z,99597.88
2023-12-26T00:31:46.402Z,99599.56
2023-12-26T00:32:18.484Z,99595.84
2023-12-26T00:32:50.758Z,99598.06
2023-12-26T00:33:22.912Z,99595.19
2023-12-26T00:33:55.316Z,99596.19
2023-12-26T00:34:27.588Z,99598.06
2023-12-26T00:34:59.717Z,99603.59
2023-12-26T00:35:31.797Z,99605.59
2023-12-26T00:36:03.977Z,99602.25
2023-12-26T00:36:35.996Z,99599.72
2023-12-26T00:37:09.266Z,99603.75
2023-12-26T00:37:41.358Z,99606.25
2023-12-26T00:38:13.431Z,99593.66
2023-12-26T00:38:46.862Z,99598.19
2023-12-26T00:39:19.141Z,99598.38
2023-12-26T00:39:51.388Z,99600.22
2023-12-26T00:40:23.376Z,99597.53
2023-12-26T00:40:55.396Z,99589.47
2023-12-26T00:41:27.518Z,99607.09
2023-12-26T00:41:59.574Z,99602.06
2023-12-26T00:42:31.768Z,99603.38
2023-12-26T00:43:04.210Z,99605.22
2023-12-26T00:43:36.191Z,99609.47
2023-12-26T00:44:08.254Z,99597.69
2023-12-26T00:44:40.280Z,99604.41
2023-12-26T00:45:13.579Z,99602.53
2023-12-26T00:45:45.954Z,99609.47
2023-12-26T00:46:18.080Z,99606.25
2023-12-26T00:46:50.149Z,99604.91
2023-12-26T00:47:22.275Z,99598.00
2023-12-26T00:47:54.544Z,99608.94
2023-12-26T00:48:26.715Z,99598.19
2023-12-26T00:48:58.800Z,99604.88
2023-12-26T00:49:31.028Z,99602.88
2023-12-26T00:50:06.877Z,99599.19
2023-12-26T00:50:42.981Z,99606.41
2023-12-26T00:51:15.379Z,99604.22
2023-12-26T00:51:47.417Z,99603.56
2023-12-26T00:52:19.393Z,99598.53
2023-12-26T00:52:51.408Z,99605.88
2023-12-26T00:53:24.229Z,99602.38
2023-12-26T00:53:56.332Z,99604.03
2023-12-26T00:54:28.326Z,99603.19
2023-12-26T00:55:00.324Z,99600.50
2023-12-26T00:55:32.276Z,99601.53
2023-12-26T00:56:04.617Z,99612.44
2023-12-26T00:56:36.712Z,99609.41
2023-12-26T00:57:08.766Z,99607.91
2023-12-26T00:57:44.802Z,99610.78
2023-12-26T00:58:16.784Z,99604.56
2023-12-26T00:58:48.778Z,99615.44
2023-12-26T00:59:20.883Z,99612.75
2023-12-26T00:59:52.945Z,99610.06
2023-12-26T01:00:25.101Z,99611.09
2023-12-26T01:00:57.293Z,99611.75
2023-12-26T01:01:29.309Z,99614.13
2023-12-26T01:02:03.195Z,99608.22
2023-12-26T01:02:35.323Z,99616.16
2023-12-26T01:03:07.472Z,99617.28
2023-12-26T01:03:39.551Z,99620.31
2023-12-26T01:04:11.807Z,99609.75
2023-12-26T01:04:43.842Z,99612.75
2023-12-26T01:05:15.960Z,99617.28
2023-12-26T01:05:48.012Z,99619.47
2023-12-26T01:06:20.101Z,99614.41
2023-12-26T01:06:52.181Z,99614.41
2023-12-26T01:07:24.227Z,99617.94
2023-12-26T01:07:56.277Z,99614.25
2023-12-26T01:08:28.282Z,99611.72
2023-12-26T01:09:00.588Z,99615.44
2023-12-26T01:09:32.998Z,99613.59
2023-12-26T01:10:06.600Z,99616.28
2023-12-26T01:10:38.640Z,99615.44
2023-12-26T01:11:10.633Z,99614.75
2023-12-26T01:11:42.737Z,99606.69
2023-12-26T01:12:15.164Z,99618.28
2023-12-26T01:12:47.708Z,99618.78
2023-12-26T01:13:19.832Z,99616.59
2023-12-26T01:13:51.893Z,99611.38
2023-12-26T01:14:24.309Z,99616.75
2023-12-26T01:14:56.370Z,99618.47
2023-12-26T01:15:28.348Z,99617.09
2023-12-26T01:16:00.283Z,99615.97
2023-12-26T01:16:47.369Z,99612.75
2023-12-26T01:17:19.424Z,99608.56
2023-12-26T01:17:51.542Z,99618.59
2023-12-26T01:18:23.657Z,99614.22
2023-12-26T01:18:58.133Z,99619.97
2023-12-26T01:19:30.220Z,99613.75
2023-12-26T01:20:03.998Z,99608.56
2023-12-26T01:20:36.275Z,99621.97
2023-12-26T01:21:10.189Z,99612.25
2023-12-26T01:21:42.406Z,99612.06
2023-12-26T01:22:14.412Z,99620.81
2023-12-26T01:22:46.441Z,99617.44
2023-12-26T01:23:18.399Z,99608.38
2023-12-26T01:23:50.476Z,99607.72
2023-12-26T01:24:22.436Z,99610.41
2023-12-26T01:24:54.475Z,99602.47
2023-12-26T01:25:28.091Z,99606.88
2023-12-26T01:26:00.066Z,99617.81
2023-12-26T01:26:32.197Z,99613.09
2023-12-26T01:27:09.824Z,99603.03
2023-12-26T01:27:41.833Z,99610.78
2023-12-26T01:28:14.037Z,99609.75
2023-12-26T01:28:45.942Z,99606.22
2023-12-26T01:29:17.919Z,99612.63
2023-12-26T01:29:50.535Z,99612.94
2023-12-26T01:30:22.638Z,99606.72
2023-12-26T01:30:54.682Z,99610.59
2023-12-26T01:31:26.626Z,99603.69
2023-12-26T01:31:58.562Z,99603.03
2023-12-26T01:32:31.050Z,99600.16
2023-12-26T01:33:03.392Z,99603.84
2023-12-26T01:33:35.583Z,99602.34
2023-12-26T01:34:08.436Z,99612.94
2023-12-26T01:34:40.761Z,99608.91
2023-12-26T01:35:12.846Z,99600.84
2023-12-26T01:35:44.957Z,99604.69
2023-12-26T01:36:17.349Z,99604.56
2023-12-26T01:36:49.473Z,99601.00
2023-12-26T01:37:21.410Z,99610.91
2023-12-26T01:37:54.459Z,99606.38
2023-12-26T01:38:26.475Z,99607.75
2023-12-26T01:38:58.661Z,99597.16
2023-12-26T01:39:30.695Z,99605.41
2023-12-26T01:40:02.724Z,99599.19
2023-12-26T01:40:34.814Z,99601.88
2023-12-26T01:41:06.829Z,99601.00
2023-12-26T01:41:38.882Z,99595.81
2023-12-26T01:42:11.026Z,99600.16
2023-12-26T01:42:43.374Z,99603.69
2023-12-26T01:43:15.377Z,99608.22
2023-12-26T01:43:47.364Z,99598.19
2023-12-26T01:44:19.334Z,99599.50
2023-12-26T01:44:51.281Z,99609.41
2023-12-26T01:45:23.756Z,99606.22
2023-12-26T01:46:02.329Z,99595.50
2023-12-26T01:46:35.876Z,99602.19
2023-12-26T01:47:08.056Z,99603.69
2023-12-26T01:47:40.649Z,99605.72
2023-12-26T01:48:13.829Z,99600.50
2023-12-26T01:48:49.010Z,99597.16
2023-12-26T01:49:21.677Z,99592.63
2023-12-26T01:49:54.229Z,99592.44
2023-12-26T01:50:27.467Z,99603.03
2023-12-26T01:51:01.806Z,99597.47
2023-12-26T01:51:34.969Z,99590.94
2023-12-26T01:52:09.940Z,99599.66
2023-12-26T01:52:42.819Z,99595.31
2023-12-26T01:53:17.369Z,99589.41
2023-12-26T01:53:53.142Z,99595.25
2023-12-26T01:54:30.033Z,99591.59
2023-12-26T01:55:02.419Z,99593.09
2023-12-26T01:55:37.654Z,99600.81
2023-12-26T01:56:11.999Z,99590.78
2023-12-26T01:56:44.193Z,99594.28
2023-12-26T01:57:16.331Z,99588.41
2023-12-26T01:58:06.961Z,99593.09
2023-12-26T01:58:39.633Z,99589.56
2023-12-26T01:59:12.676Z,99589.56
2023-12-26T01:59:44.934Z,99591.09
2023-12-26T02:00:17.348Z,99591.25
2023-12-26T02:00:50.712Z,99591.59
2023-12-26T02:01:23.020Z,99584.50
2023-12-26T02:01:55.707Z,99591.06
2023-12-26T02:02:29.628Z,99592.56
2023-12-26T02:03:01.680Z,99593.28
2023-12-26T02:03:34.463Z,99594.94
2023-12-26T02:04:06.753Z,99591.44
2023-12-26T02:04:39.390Z,99589.75
2023-12-26T02:05:13.648Z,99591.59
2023-12-26T02:05:47.719Z,99590.59
2023-12-26T02:06:19.796Z,99587.06
2023-12-26T02:06:52.346Z,99588.06
2023-12-26T02:07:24.342Z,99584.69
2023-12-26T02:07:56.552Z,99584.69
2023-12-26T02:08:29.833Z,99587.53
2023-12-26T02:09:01.848Z,99591.91
2023-12-26T02:09:33.836Z,99574.47
2023-12-26T02:10:07.404Z,99586.53
2023-12-26T02:10:39.377Z,99585.72
2023-12-26T02:11:11.392Z,99574.13
2023-12-26T02:11:44.279Z,99578.84
2023-12-26T02:12:17.437Z,99584.19
2023-12-26T02:12:49.453Z,99573.47
2023-12-26T02:13:22.235Z,99579.84
2023-12-26T02:13:54.261Z,99580.84
2023-12-26T02:14:26.326Z,99578.00
2023-12-26T02:14:58.827Z,99570.09
2023-12-26T02:15:30.942Z,99571.78
2023-12-26T02:16:10.734Z,99571.94
2023-12-26T02:16:44.713Z,99570.94
2023-12-26T02:17:23.283Z,99567.56
2023-12-26T02:17:56.922Z,99566.06
2023-12-26T02:18:30.148Z,99565.88
2023-12-26T02:19:02.872Z,99565.88
2023-12-26T02:19:41.903Z,99558.00
2023-12-26T02:20:13.907Z,99556.16
2023-12-26T02:20:45.952Z,99553.47
2023-12-26T02:21:18.523Z,99558.16
2023-12-26T02:21:50.623Z,99565.03
2023-12-26T02:22:22.877Z,99555.13
2023-12-26T02:22:55.090Z,99560.50
2023-12-26T02:23:30.135Z,99552.63
2023-12-26T02:24:02.214Z,99559.00
2023-12-26T02:24:34.277Z,99556.16
2023-12-26T02:25:09.541Z,99550.94
2023-12-26T02:25:41.605Z,99548.56
2023-12-26T02:26:15.334Z,99550.25
2023-12-26T02:26:55.363Z,99542.53
2023-12-26T02:27:30.610Z,99550.41
2023-12-26T02:28:07.158Z,99555.78
2023-12-26T02:28:40.472Z,99547.91
2023-12-26T02:29:14.316Z,99551.91
2023-12-26T02:29:50.348Z,99552.63
2023-12-26T02:30:24.819Z,99547.72
2023-12-26T02:30:59.881Z,99551.78
2023-12-26T02:31:33.469Z,99547.56
2023-12-26T02:32:07.244Z,99551.78
2023-12-26T02:32:42.011Z,99547.25
2023-12-26T02:33:15.559Z,99557.16
2023-12-26T02:33:49.182Z,99558.47
2023-12-26T02:34:23.907Z,99549.09
2023-12-26T02:34:57.300Z,99549.28
2023-12-26T02:35:29.693Z,99546.91
2023-12-26T02:36:05.279Z,99542.88
2023-12-26T02:36:37.756Z,99550.09
2023-12-26T02:37:09.920Z,99551.13
2023-12-26T02:37:42.246Z,99548.44
2023-12-26T02:38:14.657Z,99548.44
2023-12-26T02:38:46.630Z,99550.59
2023-12-26T02:39:18.722Z,99549.75
2023-12-26T02:39:51.908Z,99548.25
2023-12-26T02:40:26.526Z,99547.06
2023-12-26T02:40:58.527Z,99549.94
2023-12-26T02:41:30.508Z,99545.75
2023-12-26T02:42:02.887Z,99550.59
2023-12-26T02:42:35.071Z,99551.31
2023-12-26T02:43:07.142Z,99552.44
2023-12-26T02:43:39.167Z,99550.59
2023-12-26T02:44:11.127Z,99556.16
2023-12-26T02:44:43.133Z,99557.81
2023-12-26T02:45:16.287Z,99555.97
2023-12-26T02:45:50.185Z,99551.31
2023-12-26T02:46:22.175Z,99552.28
2023-12-26T02:46:54.211Z,99549.59
2023-12-26T02:47:26.381Z,99553.28
2023-12-26T02:47:58.543Z,99546.06
2023-12-26T02:48:30.744Z,99547.06
2023-12-26T02:49:03.062Z,99554.13
2023-12-26T02:49:35.132Z,99551.31
2023-12-26T02:50:10.551Z,99541.41
2023-12-26T02:50:42.617Z,99544.09
2023-12-26T02:51:14.691Z,99537.03
2023-12-26T02:51:46.689Z,99545.94
2023-12-26T02:52:19.730Z,99542.41
2023-12-26T02:52:53.201Z,99535.84
2023-12-26T02:53:25.263Z,99544.56
2023-12-26T02:53:57.317Z,99535.50
2023-12-26T02:54:29.457Z,99534.34
2023-12-26T02:55:01.436Z,99544.56
2023-12-26T02:55:33.516Z,99541.41
2023-12-26T02:56:05.684Z,99537.16
2023-12-26T02:56:37.736Z,99549.94
2023-12-26T02:57:09.770Z,99537.16
2023-12-26T02:57:42.048Z,99543.06
2023-12-26T02:58:14.047Z,99537.53
2023-12-26T02:58:45.987Z,99538.38
2023-12-26T02:59:17.978Z,99536.03
2023-12-26T02:59:50.034Z,99535.84
2023-12-26T03:00:40.430Z,99543.25
2023-12-26T03:01:12.378Z,99537.16
2023-12-26T03:01:47.234Z,99532.81
2023-12-26T03:02:20.205Z,99538.00
2023-12-26T03:02:52.365Z,99539.19
2023-12-26T03:03:24.735Z,99529.81
2023-12-26T03:03:56.878Z,99520.56
2023-12-26T03:04:29.920Z,99535.19
2023-12-26T03:05:03.056Z,99536.69
2023-12-26T03:05:35.166Z,99524.75
2023-12-26T03:06:09.094Z,99537.88
2023-12-26T03:06:41.405Z,99536.34
2023-12-26T03:07:13.358Z,99537.03
2023-12-26T03:07:45.345Z,99541.41
2023-12-26T03:08:17.283Z,99534.84
2023-12-26T03:08:49.389Z,99539.72
2023-12-26T03:09:21.605Z,99540.03
2023-12-26T03:09:54.071Z,99539.19
2023-12-26T03:10:26.366Z,99540.19
2023-12-26T03:10:58.292Z,99537.16
2023-12-26T03:11:30.318Z,99542.88
2023-12-26T03:12:07.798Z,99538.34
2023-12-26T03:12:39.778Z,99536.34
2023-12-26T03:13:11.663Z,99537.34
2023-12-26T03:13:43.679Z,99540.19
2023-12-26T03:14:16.703Z,99537.81
2023-12-26T03:14:51.028Z,99541.53
2023-12-26T03:15:23.153Z,99542.38
2023-12-26T03:15:55.201Z,99535.81
2023-12-26T03:16:27.255Z,99533.63
2023-12-26T03:16:59.288Z,99533.81
2023-12-26T03:17:31.562Z,99544.22
2023-12-26T03:18:03.770Z,99540.03
2023-12-26T03:18:37.461Z,99543.38
2023-12-26T03:19:09.608Z,99536.81
2023-12-26T03:19:41.746Z,99540.03
2023-12-26T03:20:16.845Z,99535.13
2023-12-26T03:20:48.933Z,99549.88
2023-12-26T03:21:29.935Z,99549.75
2023-12-26T03:22:01.885Z,99543.19
2023-12-26T03:22:33.938Z,99548.91
2023-12-26T03:23:05.909Z,99540.66
2023-12-26T03:23:37.899Z,99547.00
2023-12-26T03:24:10.007Z,99547.19
2023-12-26T03:24:41.977Z,99541.63
2023-12-26T03:25:13.912Z,99545.97
2023-12-26T03:25:45.934Z,99537.09
2023-12-26T03:26:17.861Z,99546.50
2023-12-26T03:26:49.801Z,99551.22
2023-12-26T03:27:23.051Z,99544.31
2023-12-26T03:27:58.679Z,99552.06
2023-12-26T03:28:30.744Z,99548.72
2023-12-26T03:29:02.985Z,99547.19
2023-12-26T03:29:36.830Z,99551.22
2023-12-26T03:30:09.448Z,99548.16
2023-12-26T03:30:41.563Z,99540.44
2023-12-26T03:31:14.192Z,99557.91
2023-12-26T03:31:46.620Z,99559.75
2023-12-26T03:32:21.303Z,99554.38
2023-12-26T03:32:53.488Z,99556.06
2023-12-26T03:33:25.700Z,99552.34
2023-12-26T03:33:57.858Z,99554.88
2023-12-26T03:34:29.936Z,99558.09
2023-12-26T03:35:03.124Z,99548.19
2023-12-26T03:35:35.192Z,99552.53
2023-12-26T03:36:09.612Z,99560.94
2023-12-26T03:36:45.800Z,99551.22
2023-12-26T03:37:17.769Z,99564.47
2023-12-26T03:37:49.740Z,99547.53
2023-12-26T03:38:21.827Z,99559.94
2023-12-26T03:38:53.858Z,99554.41
2023-12-26T03:39:25.861Z,99550.53
2023-12-26T03:39:57.798Z,99553.38
2023-12-26T03:40:29.854Z,99541.31
2023-12-26T03:41:07.324Z,99540.63
2023-12-26T03:41:39.395Z,99550.22
2023-12-26T03:42:11.431Z,99544.00
2023-12-26T03:42:43.920Z,99543.81
2023-12-26T03:43:17.891Z,99546.50
2023-12-26T03:43:49.875Z,99543.47
2023-12-26T03:44:21.890Z,99548.34
2023-12-26T03:44:53.953Z,99551.34
2023-12-26T03:45:28.025Z,99553.03
2023-12-26T03:46:00.073Z,99545.50
2023-12-26T03:46:32.059Z,99546.34
2023-12-26T03:47:04.296Z,99542.66
2023-12-26T03:47:36.460Z,99550.88
2023-12-26T03:48:08.957Z,99545.34
2023-12-26T03:48:41.326Z,99550.53
2023-12-26T03:49:13.581Z,99551.22
2023-12-26T03:49:45.792Z,99544.31
2023-12-26T03:50:17.863Z,99541.81
2023-12-26T03:50:52.897Z,99547.19
2023-12-26T03:51:24.850Z,99545.69
2023-12-26T03:51:56.770Z,99546.69
2023-12-26T03:52:29.028Z,99549.38
2023-12-26T03:53:00.929Z,99553.06
2023-12-26T03:53:32.913Z,99547.19
2023-12-26T03:54:05.291Z,99543.66
2023-12-26T03:54:37.358Z,99539.13
2023-12-26T03:55:09.685Z,99540.97
2023-12-26T03:55:41.730Z,99541.97
2023-12-26T03:56:13.745Z,99538.47
2023-12-26T03:56:46.098Z,99540.13
2023-12-26T03:57:18.061Z,99536.91
2023-12-26T03:57:50.417Z,99535.25
2023-12-26T03:58:22.400Z,99543.00
2023-12-26T03:58:54.330Z,99536.78
2023-12-26T03:59:26.334Z,99541.44
2023-12-26T03:59:58.354Z,99530.03
2023-12-26T04:00:30.824Z,99535.78
2023-12-26T04:01:02.874Z,99531.25
2023-12-26T04:01:34.916Z,99542.66
2023-12-26T04:02:06.826Z,99531.91
2023-12-26T04:02:38.948Z,99535.28
2023-12-26T04:03:11.198Z,99545.16
2023-12-26T04:03:43.416Z,99526.06
2023-12-26T04:04:15.610Z,99526.06
2023-12-26T04:04:47.863Z,99540.00
2023-12-26T04:05:20.072Z,99532.09
2023-12-26T04:05:52.189Z,99542.47
2023-12-26T04:06:24.962Z,99533.44
2023-12-26T04:06:56.998Z,99529.75
2023-12-26T04:07:29.184Z,99541.50
2023-12-26T04:08:01.235Z,99543.19
2023-12-26T04:08:33.184Z,99536.13
2023-12-26T04:09:05.569Z,99535.59
2023-12-26T04:09:37.536Z,99535.28
2023-12-26T04:10:10.124Z,99533.44
2023-12-26T04:10:42.110Z,99540.81
2023-12-26T04:11:14.389Z,99535.44
2023-12-26T04:11:46.596Z,99531.91
2023-12-26T04:12:18.611Z,99529.56
2023-12-26T04:12:50.573Z,99531.41
2023-12-26T04:13:22.637Z,99533.75
2023-12-26T04:13:54.636Z,99535.94
2023-12-26T04:14:26.643Z,99531.25
2023-12-26T04:14:58.864Z,99542.81
2023-12-26T04:15:30.862Z,99535.94
2023-12-26T04:16:03.064Z,99539.78
2023-12-26T04:16:35.040Z,99524.50
2023-12-26T04:17:07.024Z,99539.28
2023-12-26T04:17:39.219Z,99536.63
2023-12-26T04:18:11.417Z,99532.41
2023-12-26T04:18:43.610Z,99537.44
2023-12-26T04:19:15.735Z,99535.78
2023-12-26T04:19:48.195Z,99538.13
2023-12-26T04:20:20.236Z,99524.03
2023-12-26T04:20:52.322Z,99537.44
2023-12-26T04:21:24.377Z,99540.13
2023-12-26T04:21:57.130Z,99539.59
2023-12-26T04:22:29.164Z,99541.44
2023-12-26T04:23:01.252Z,99537.94
2023-12-26T04:23:33.330Z,99535.41
2023-12-26T04:24:06.244Z,99532.06
2023-12-26T04:24:42.881Z,99536.25
2023-12-26T04:25:15.833Z,99537.94
2023-12-26T04:25:48.124Z,99525.00
2023-12-26T04:26:20.182Z,99532.91
2023-12-26T04:26:52.151Z,99528.38
2023-12-26T04:27:24.133Z,99532.91
2023-12-26T04:27:56.186Z,99538.28
2023-12-26T04:28:28.152Z,99539.41
2023-12-26T04:29:00.136Z,99542.81
2023-12-26T04:29:32.712Z,99539.09
2023-12-26T04:30:05.269Z,99537.59
2023-12-26T04:30:37.683Z,99536.91
2023-12-26T04:31:09.840Z,99545.97
2023-12-26T04:31:41.875Z,99541.25
2023-12-26T04:32:13.929Z,99542.09
2023-12-26T04:32:46.686Z,99547.47
2023-12-26T04:33:18.863Z,99544.13
2023-12-26T04:33:51.012Z,99548.47
2023-12-26T04:34:23.198Z,99545.97
2023-12-26T04:34:55.682Z,99546.13
2023-12-26T04:35:27.656Z,99547.13
2023-12-26T04:35:59.796Z,99544.28
2023-12-26T04:36:36.640Z,99549.97
2023-12-26T04:37:08.677Z,99549.28
2023-12-26T04:37:40.683Z,99548.28
2023-12-26T04:38:13.541Z,99546.59
2023-12-26T04:38:45.643Z,99546.59
2023-12-26T04:39:17.812Z,99552.81
2023-12-26T04:39:49.756Z,99547.44
2023-12-26T04:40:21.778Z,99551.81
2023-12-26T04:40:53.756Z,99550.13
2023-12-26T04:41:25.721Z,99546.44
2023-12-26T04:41:57.764Z,99548.13
2023-12-26T04:42:29.859Z,99552.50
2023-12-26T04:43:10.987Z,99549.66
2023-12-26T04:43:42.903Z,99553.19
2023-12-26T04:44:14.981Z,99545.44
2023-12-26T04:44:47.588Z,99554.34
2023-12-26T04:45:19.851Z,99545.78
2023-12-26T04:45:52.172Z,99547.09
2023-12-26T04:46:24.235Z,99551.63
2023-12-26T04:46:56.168Z,99553.16
2023-12-26T04:47:30.174Z,99548.78
2023-12-26T04:48:06.670Z,99554.84
2023-12-26T04:48:38.929Z,99551.47
2023-12-26T04:49:11.169Z,99550.78
2023-12-26T04:49:43.385Z,99553.28
2023-12-26T04:50:15.408Z,99555.97
2023-12-26T04:50:47.461Z,99552.16
2023-12-26T04:51:20.048Z,99562.22
2023-12-26T04:51:52.112Z,99558.66
2023-12-26T04:52:24.154Z,99554.47
2023-12-26T04:52:56.355Z,99548.94
2023-12-26T04:53:28.714Z,99555.13
2023-12-26T04:54:00.734Z,99555.31
2023-12-26T04:54:32.726Z,99555.13
2023-12-26T04:55:05.162Z,99560.84
2023-12-26T04:55:37.247Z,99556.47
2023-12-26T04:56:09.265Z,99557.31
2023-12-26T04:56:44.664Z,99559.84
2023-12-26T04:57:18.490Z,99565.53
2023-12-26T04:57:50.497Z,99562.16
2023-12-26T04:58:22.426Z,99557.78
2023-12-26T04:58:54.405Z,99559.47
2023-12-26T04:59:26.387Z,99555.78
2023-12-26T04:59:58.719Z,99560.47
2023-12-26T05:00:30.691Z,99556.97
2023-12-26T05:01:02.795Z,99554.28
2023-12-26T05:01:41.558Z,99552.25
2023-12-26T05:02:16.585Z,99562.84
2023-12-26T05:02:49.114Z,99565.00
2023-12-26T05:03:55.875Z,99558.31
2023-12-26T05:04:27.957Z,99565.69
2023-12-26T05:04:59.885Z,99563.00
2023-12-26T05:05:31.950Z,99556.41
2023-12-26T05:06:05.757Z,99566.84
2023-12-26T05:06:38.851Z,99561.13
2023-12-26T05:07:11.076Z,99558.44
2023-12-26T05:07:43.047Z,99562.78
2023-12-26T05:08:48.625Z,99560.28
2023-12-26T05:09:20.707Z,99559.44
2023-12-26T05:10:25.961Z,99558.78
2023-12-26T05:10:58.207Z,99556.91
2023-12-26T05:11:30.229Z,99558.44
2023-12-26T05:12:02.446Z,99551.22
2023-12-26T05:12:34.972Z,99560.66
2023-12-26T05:13:06.952Z,99562.66
2023-12-26T05:13:38.901Z,99558.25
2023-12-26T05:14:11.021Z,99561.13
2023-12-26T05:14:43.019Z,99560.63
2023-12-26T05:15:15.146Z,99564.13
2023-12-26T05:15:48.007Z,99564.63
2023-12-26T05:16:20.978Z,99563.97
2023-12-26T05:16:53.010Z,99560.44
2023-12-26T05:17:24.981Z,99566.81
2023-12-26T05:17:57.270Z,99566.94
2023-12-26T05:18:29.603Z,99568.66
2023-12-26T05:19:01.764Z,99566.13
2023-12-26T05:19:33.911Z,99567.13
2023-12-26T05:20:15.303Z,99564.97
2023-12-26T05:20:53.556Z,99564.13
2023-12-26T05:21:25.500Z,99558.78
2023-12-26T05:21:57.508Z,99565.81
2023-12-26T05:22:29.466Z,99559.81
2023-12-26T05:23:01.500Z,99564.34
2023-12-26T05:23:35.383Z,99566.31
2023-12-26T05:24:07.842Z,99564.13
2023-12-26T05:24:48.503Z,99577.22
2023-12-26T05:25:24.777Z,99558.91
2023-12-26T05:26:04.801Z,99568.31
2023-12-26T05:26:44.995Z,99564.81
2023-12-26T05:27:17.168Z,99568.66
2023-12-26T05:27:49.216Z,99566.13
2023-12-26T05:28:21.206Z,99558.41
2023-12-26T05:28:53.181Z,99560.75
2023-12-26T05:29:25.114Z,99568.66
2023-12-26T05:29:57.050Z,99556.22
2023-12-26T05:30:29.245Z,99562.13
2023-12-26T05:31:02.407Z,99551.22
2023-12-26T05:32:09.836Z,99564.81
2023-12-26T05:32:43.331Z,99567.16
2023-12-26T05:33:15.447Z,99563.13
2023-12-26T05:33:47.688Z,99555.06
2023-12-26T05:34:21.289Z,99557.44
2023-12-26T05:34:56.417Z,99563.81
2023-12-26T05:35:28.325Z,99555.44
2023-12-26T05:36:03.569Z,99557.13
2023-12-26T05:36:35.536Z,99562.50
2023-12-26T05:37:07.478Z,99556.28
2023-12-26T05:37:39.474Z,99563.31
2023-12-26T05:38:11.429Z,99559.09
2023-12-26T05:38:43.433Z,99556.28
2023-12-26T05:39:15.901Z,99559.09
2023-12-26T05:39:47.946Z,99557.44
2023-12-26T05:40:20.530Z,99555.59
2023-12-26T05:40:52.474Z,99556.41
2023-12-26T05:41:26.313Z,99557.59
2023-12-26T05:41:58.559Z,99555.06
2023-12-26T05:42:30.610Z,99557.59
2023-12-26T05:43:02.855Z,99556.59
2023-12-26T05:43:35.176Z,99558.59
2023-12-26T05:44:07.206Z,99561.94
2023-12-26T05:44:40.597Z,99547.03
2023-12-26T05:45:12.633Z,99557.59
2023-12-26T05:45:44.626Z,99556.75
2023-12-26T05:46:16.693Z,99555.59
2023-12-26T05:46:48.671Z,99546.84
2023-12-26T05:47:22.165Z,99553.91
2023-12-26T05:47:54.446Z,99549.25
2023-12-26T05:48:26.650Z,99551.06
2023-12-26T05:48:59.915Z,99553.44
2023-12-26T05:49:32.623Z,99560.16
2023-12-26T05:50:05.137Z,99552.25
2023-12-26T05:50:37.361Z,99562.31
2023-12-26T05:51:09.421Z,99558.78
2023-12-26T05:51:41.545Z,99562.31
2023-12-26T05:52:13.674Z,99558.13
2023-12-26T05:52:46.241Z,99552.41
2023-12-26T05:53:18.290Z,99562.00
2023-12-26T05:53:50.317Z,99558.63
2023-12-26T05:54:22.342Z,99564.16
2023-12-26T05:54:54.323Z,99561.47
2023-12-26T05:55:26.331Z,99559.81
2023-12-26T05:55:58.576Z,99558.25
2023-12-26T05:56:30.604Z,99554.06
2023-12-26T05:57:02.933Z,99566.00
2023-12-26T05:57:35.506Z,99561.78
2023-12-26T05:58:07.462Z,99564.47
2023-12-26T05:58:41.245Z,99560.94
2023-12-26T05:59:13.452Z,99558.06
2023-12-26T05:59:45.414Z,99557.22
2023-12-26T06:00:17.859Z,99561.59
2023-12-26T06:00:49.881Z,99561.09
2023-12-26T06:01:40.619Z,99554.88
2023-12-26T06:02:12.641Z,99567.06
2023-12-26T06:02:44.624Z,99562.13
2023-12-26T06:03:16.670Z,99555.13
2023-12-26T06:03:48.705Z,99563.00
2023-12-26T06:04:20.782Z,99559.81
2023-12-26T06:04:52.732Z,99563.50
2023-12-26T06:05:24.731Z,99570.00
2023-12-26T06:05:56.752Z,99566.31
2023-12-26T06:06:30.043Z,99574.34
2023-12-26T06:07:02.057Z,99569.47
2023-12-26T06:07:34.954Z,99574.31
2023-12-26T06:08:07.231Z,99567.72
2023-12-26T06:08:40.888Z,99565.03
2023-12-26T06:09:12.939Z,99567.44
2023-12-26T06:09:44.907Z,99568.03
2023-12-26T06:10:16.896Z,99562.97
2023-12-26T06:11:22.216Z,99565.59
2023-12-26T06:11:54.315Z,99563.22
2023-12-26T06:12:26.412Z,99563.69
2023-12-26T06:12:58.517Z,99566.59
2023-12-26T06:13:30.510Z,99566.28
2023-12-26T06:14:02.642Z,99568.50
2023-12-26T06:14:34.688Z,99571.81
2023-12-26T06:15:07.211Z,99569.34
2023-12-26T06:15:39.197Z,99569.41
2023-12-26T06:16:11.209Z,99571.63
2023-12-26T06:16:43.176Z,99574.97
2023-12-26T06:17:15.240Z,99579.38
2023-12-26T06:17:47.504Z,99570.16
2023-12-26T06:18:19.727Z,99570.16
2023-12-26T06:18:52.404Z,99569.81
2023-12-26T06:19:24.924Z,99563.53
2023-12-26T06:19:57.203Z,99563.22
2023-12-26T06:20:29.450Z,99563.06
2023-12-26T06:21:01.538Z,99562.38
2023-12-26T06:21:33.505Z,99560.84
2023-12-26T06:22:05.536Z,99564.88
2023-12-26T06:22:37.600Z,99563.41
2023-12-26T06:23:09.558Z,99575.81
2023-12-26T06:23:41.611Z,99559.22
2023-12-26T06:24:13.794Z,99557.91
2023-12-26T06:24:48.879Z,99562.50
2023-12-26T06:25:21.025Z,99561.66
2023-12-26T06:25:52.897Z,99564.66
2023-12-26T06:26:24.995Z,99561.53
2023-12-26T06:26:56.970Z,99557.00
2023-12-26T06:27:28.887Z,99570.13